Nelson, Canada
Current Conditions -  °F | °C
As of 4:00 PM on Sunday 23 Nov 2014 (Local Time) from CYXC Reporting Station
Rain Showers Rain Showers  
Wind Chill: 32°   Ceiling: Unl
Heat Index: 32°   Visibility: 15mi
Dew Point: 28°   Wind: 3mph
Humidity: 87%   Direction: 110°ESE
Pressure: 29.85"   Gusts: NA
Location:  49.48°N, 117.28°W
Report Text: CYXC 240000Z 11003KT 15SM VCSH FEW010 FEW040 SCT070 M00/M02 A2985 RMK SF1SC2AC2 SF TR SLP146
Loading
Personal Weather Stations






























Interactive Weather Map New forecast layout! Learn more

10-Day Weather Forecast

Advertisements
Track Severe Weather on mobile